Time;durP1;ratioP1;P1;durP2;ratioP2;P2;SDS_P1;SDS_P2;PMS_P1;PMS_P2;Temp;Humidity;BMP_temperature;BMP_pressure;BME280_temperature;BME280_humidity;BME280_pressure;Samples;Min_cycle;Max_cycle;Signal;HPM_P1;HPM_P2
2021/12/31 00:00:45;;;;;;;29.83;4.53;;;12.30;99.90;;;;;;5027644;28;20072;-72
2021/12/31 00:03:10;;;;;;;17.98;3.40;;;12.40;99.90;;;;;;5032275;28;20079;-74
2021/12/31 00:05:36;;;;;;;15.35;2.88;;;12.50;99.90;;;;;;5030409;28;20131;-72
2021/12/31 00:08:02;;;;;;;23.50;4.63;;;12.60;99.90;;;;;;5032352;28;20029;-72
2021/12/31 00:10:27;;;;;;;19.52;3.63;;;12.70;99.90;;;;;;5025848;28;20455;-72
2021/12/31 00:12:56;;;;;;;22.55;3.72;;;12.70;99.90;;;;;;5031501;28;20048;-75
2021/12/31 00:15:22;;;;;;;17.83;3.60;;;12.80;99.90;;;;;;5031740;28;20112;-74
2021/12/31 00:17:48;;;;;;;13.75;3.15;;;12.80;99.90;;;;;;5030637;28;20025;-73
2021/12/31 00:20:20;;;;;;;18.63;4.03;;;12.80;99.90;;;;;;5029025;28;20112;-73
2021/12/31 00:23:02;;;;;;;15.93;3.47;;;12.80;99.90;;;;;;5040792;28;20025;-72
2021/12/31 00:25:30;;;;;;;21.25;4.07;;;12.80;99.90;;;;;;5041815;28;20038;-76
2021/12/31 00:27:55;;;;;;;21.52;4.15;;;12.80;99.90;;;;;;5019689;28;20025;-74
2021/12/31 00:30:21;;;;;;;24.55;3.75;;;12.80;99.90;;;;;;5020467;28;20364;-73
2021/12/31 00:32:48;;;;;;;19.65;3.65;;;12.80;99.90;;;;;;5026854;28;20026;-76
2021/12/31 00:35:14;;;;;;;18.73;3.85;;;12.70;99.90;;;;;;5032238;28;20378;-74
2021/12/31 00:37:40;;;;;;;20.67;4.00;;;12.80;99.90;;;;;;5031622;28;20028;-74
2021/12/31 00:40:09;;;;;;;19.63;3.53;;;12.80;99.90;;;;;;5030203;28;20022;-76
2021/12/31 00:42:36;;;;;;;12.68;3.22;;;12.70;99.90;;;;;;5026878;28;20553;-75
2021/12/31 00:45:02;;;;;;;15.25;3.45;;;12.80;99.90;;;;;;5031226;28;20380;-75
2021/12/31 00:47:28;;;;;;;17.45;4.00;;;12.70;99.90;;;;;;5030944;28;20167;-75
2021/12/31 00:49:54;;;;;;;15.60;3.58;;;12.80;99.90;;;;;;5029528;28;20026;-71
2021/12/31 00:52:19;;;;;;;19.40;3.00;;;12.70;99.90;;;;;;5027547;28;20029;-75
2021/12/31 00:54:45;;;;;;;11.82;2.90;;;12.80;99.90;;;;;;5035285;28;20065;-75
2021/12/31 00:57:11;;;;;;;17.88;3.05;;;12.80;99.90;;;;;;5035643;28;20122;-76
2021/12/31 00:59:38;;;;;;;10.18;2.88;;;12.70;99.90;;;;;;5027731;28;20025;-72
2021/12/31 01:02:05;;;;;;;13.65;3.55;;;12.80;99.90;;;;;;5035760;28;20052;-73
2021/12/31 01:04:32;;;;;;;10.57;2.83;;;12.80;99.90;;;;;;5033417;28;20026;-71
2021/12/31 01:06:58;;;;;;;14.85;2.85;;;12.80;99.90;;;;;;5031368;28;20030;-73
2021/12/31 01:09:25;;;;;;;15.27;2.90;;;12.80;99.90;;;;;;5019822;28;20501;-72
2021/12/31 01:11:52;;;;;;;13.27;3.03;;;12.90;99.90;;;;;;5034439;28;20467;-74
2021/12/31 01:14:32;;;;;;;11.52;2.80;;;12.90;99.90;;;;;;5027355;28;20049;-72
2021/12/31 01:17:01;;;;;;;15.20;3.08;;;13.00;99.90;;;;;;5021517;28;20025;-72
2021/12/31 01:21:54;;;;;;;13.30;2.97;;;13.00;99.90;;;;;;5025811;28;20064;-74
2021/12/31 01:24:23;;;;;;;13.10;3.00;;;13.00;99.90;;;;;;5021197;28;20101;-75
2021/12/31 01:26:49;;;;;;;15.70;3.10;;;13.10;99.90;;;;;;5024953;28;20192;-73
2021/12/31 01:29:14;;;;;;;14.90;3.40;;;13.10;99.90;;;;;;5035686;28;20489;-73
2021/12/31 01:31:40;;;;;;;15.50;3.13;;;13.10;99.90;;;;;;5034444;28;20611;-73
2021/12/31 01:34:06;;;;;;;13.75;2.72;;;13.20;99.90;;;;;;5033044;28;20030;-76
2021/12/31 01:36:32;;;;;;;14.07;3.92;;;13.20;99.90;;;;;;5032637;28;20037;-73
2021/12/31 01:38:58;;;;;;;11.07;2.50;;;13.20;99.90;;;;;;5035009;28;20036;-75
2021/12/31 01:41:24;;;;;;;12.07;3.42;;;13.20;99.90;;;;;;5032229;28;20049;-74
2021/12/31 01:43:51;;;;;;;11.82;2.45;;;13.20;99.90;;;;;;5033483;28;20104;-73
2021/12/31 01:46:17;;;;;;;9.95;2.28;;;13.20;99.90;;;;;;5033615;28;20040;-76
2021/12/31 01:51:23;;;;;;;12.68;2.85;;;13.30;99.90;;;;;;5024346;28;20451;-75
2021/12/31 01:53:49;;;;;;;5.18;2.13;;;13.30;99.90;;;;;;5015480;28;20041;-74
2021/12/31 01:56:15;;;;;;;12.88;3.15;;;13.30;99.90;;;;;;5031315;28;20044;-72
2021/12/31 01:58:42;;;;;;;15.65;3.45;;;13.30;99.90;;;;;;5028921;28;20048;-78
2021/12/31 02:01:11;;;;;;;14.50;3.30;;;13.30;99.90;;;;;;5021768;28;20064;-74
2021/12/31 02:03:38;;;;;;;12.15;2.70;;;13.40;99.90;;;;;;5017729;28;20041;-76
2021/12/31 02:06:05;;;;;;;14.43;3.10;;;13.30;99.90;;;;;;5029614;28;20025;-74
2021/12/31 02:08:31;;;;;;;17.10;3.42;;;13.30;99.90;;;;;;5034971;28;20399;-75
2021/12/31 02:10:57;;;;;;;15.05;2.75;;;13.30;99.90;;;;;;5035159;28;20029;-75
2021/12/31 02:13:24;;;;;;;13.10;3.17;;;13.40;99.90;;;;;;5033292;28;20132;-76
2021/12/31 02:15:51;;;;;;;11.30;2.75;;;13.30;99.90;;;;;;5025151;28;20109;-73
2021/12/31 02:18:17;;;;;;;10.93;2.90;;;13.40;99.90;;;;;;5021600;28;20451;-72
2021/12/31 02:20:46;;;;;;;13.52;2.97;;;13.40;99.90;;;;;;5034467;28;20021;-75
2021/12/31 02:23:18;;;;;;;13.90;3.03;;;13.30;99.90;;;;;;5034791;28;20048;-74
2021/12/31 02:25:44;;;;;;;8.73;2.58;;;13.30;99.90;;;;;;5034675;28;20041;-76
2021/12/31 02:28:10;;;;;;;14.13;3.28;;;13.30;99.90;;;;;;5034805;28;20033;-75
2021/12/31 02:30:35;;;;;;;13.10;2.95;;;13.30;99.90;;;;;;5030046;28;20025;-73
2021/12/31 02:33:03;;;;;;;12.27;2.85;;;13.30;99.90;;;;;;5031574;28;20470;-74
2021/12/31 02:35:29;;;;;;;8.05;2.63;;;13.30;99.90;;;;;;5033921;28;20026;-74
2021/12/31 02:37:55;;;;;;;12.43;2.47;;;13.30;99.90;;;;;;5034211;28;20057;-74
2021/12/31 02:40:23;;;;;;;11.80;2.95;;;13.30;99.90;;;;;;5034260;28;20083;-74
2021/12/31 02:42:49;;;;;;;14.23;3.60;;;13.30;99.90;;;;;;5033920;28;20407;-77
2021/12/31 02:45:15;;;;;;;12.60;3.20;;;13.40;99.90;;;;;;5034210;28;20033;-76
2021/12/31 02:47:46;;;;;;;12.57;3.08;;;13.40;99.90;;;;;;5032744;28;20538;-73
2021/12/31 02:50:15;;;;;;;13.60;3.28;;;13.40;99.90;;;;;;5021599;28;20026;-73
2021/12/31 02:52:41;;;;;;;12.65;2.70;;;13.40;99.90;;;;;;5013534;28;20040;-73
2021/12/31 02:55:09;;;;;;;11.55;3.00;;;13.40;99.90;;;;;;5033713;28;20075;-74
2021/12/31 02:57:37;;;;;;;11.50;2.45;;;13.50;99.90;;;;;;5033915;28;20017;-72
2021/12/31 03:00:03;;;;;;;7.38;2.65;;;13.50;99.90;;;;;;5032668;28;20036;-74
2021/12/31 03:02:29;;;;;;;13.95;3.00;;;13.50;99.90;;;;;;5033234;28;20116;-73
2021/12/31 03:04:56;;;;;;;11.68;2.33;;;13.50;99.90;;;;;;5033808;28;20116;-76
2021/12/31 03:07:23;;;;;;;8.35;2.92;;;13.50;99.90;;;;;;5019983;28;20464;-76
2021/12/31 03:09:50;;;;;;;9.98;2.40;;;13.60;99.90;;;;;;5017921;28;20026;-75
2021/12/31 03:12:16;;;;;;;9.95;2.90;;;13.60;99.90;;;;;;5013887;28;20121;-75
2021/12/31 03:14:44;;;;;;;13.32;2.50;;;13.60;99.90;;;;;;5013846;28;20176;-73
2021/12/31 03:17:10;;;;;;;7.50;2.30;;;13.60;99.90;;;;;;5012075;28;20403;-74
2021/12/31 03:19:37;;;;;;;6.60;2.53;;;13.70;99.90;;;;;;5013840;28;20048;-75
2021/12/31 03:22:04;;;;;;;8.25;2.30;;;13.70;99.90;;;;;;5013611;28;20029;-73
2021/12/31 03:24:29;;;;;;;7.90;2.25;;;13.80;99.90;;;;;;5014084;28;20153;-73
2021/12/31 03:26:55;;;;;;;8.23;2.90;;;13.80;99.90;;;;;;5014220;28;20120;-76
2021/12/31 03:29:21;;;;;;;6.43;1.90;;;13.90;99.90;;;;;;5013680;28;20471;-76
2021/12/31 03:31:47;;;;;;;8.20;2.22;;;13.90;99.90;;;;;;5015926;28;20029;-72
2021/12/31 03:34:14;;;;;;;5.45;2.22;;;13.90;99.90;;;;;;5032844;28;20088;-73
2021/12/31 03:36:41;;;;;;;4.20;1.75;;;14.00;99.90;;;;;;5029115;28;20033;-75
2021/12/31 03:39:07;;;;;;;6.20;1.98;;;14.10;99.90;;;;;;5033257;28;20030;-74
2021/12/31 03:41:33;;;;;;;4.28;1.73;;;14.10;99.90;;;;;;5016567;28;20037;-74
2021/12/31 03:43:59;;;;;;;7.00;2.00;;;14.10;99.90;;;;;;5013570;28;20037;-73
2021/12/31 03:46:25;;;;;;;6.90;2.20;;;14.20;99.90;;;;;;5013385;28;20038;-76
2021/12/31 03:48:50;;;;;;;5.53;2.35;;;14.20;99.90;;;;;;5013627;28;20041;-74
2021/12/31 03:51:16;;;;;;;5.70;1.92;;;14.20;99.90;;;;;;5013344;28;20026;-75
2021/12/31 03:53:41;;;;;;;8.38;2.22;;;14.20;99.90;;;;;;5020640;28;20052;-75
2021/12/31 03:56:07;;;;;;;7.07;2.15;;;14.20;99.90;;;;;;5033061;28;20030;-76
2021/12/31 03:58:33;;;;;;;10.27;2.35;;;14.20;99.90;;;;;;5031937;28;20028;-74
2021/12/31 04:00:58;;;;;;;4.32;1.88;;;14.20;99.90;;;;;;5031395;28;20038;-73
2021/12/31 04:03:24;;;;;;;5.13;2.10;;;14.10;99.90;;;;;;5032820;28;20048;-74
2021/12/31 04:05:50;;;;;;;5.35;1.75;;;14.10;99.90;;;;;;5032512;28;20033;-73
2021/12/31 04:08:15;;;;;;;4.82;1.80;;;14.10;99.90;;;;;;5032958;28;20063;-72
2021/12/31 04:10:41;;;;;;;4.65;1.85;;;14.10;99.90;;;;;;5030224;28;20055;-76
2021/12/31 04:13:07;;;;;;;7.68;2.00;;;14.10;99.90;;;;;;5029827;28;20399;-71
2021/12/31 04:15:32;;;;;;;9.73;2.08;;;14.10;99.90;;;;;;5031968;28;20037;-74
2021/12/31 04:17:58;;;;;;;13.68;2.40;;;14.10;99.90;;;;;;5032848;28;20029;-73
2021/12/31 04:20:37;;;;;;;12.05;2.10;;;14.20;99.90;;;;;;5032358;28;20082;-75
2021/12/31 04:23:07;;;;;;;8.10;2.13;;;14.20;99.90;;;;;;5032891;28;20023;-75
2021/12/31 04:25:33;;;;;;;7.22;2.40;;;14.10;99.90;;;;;;5032634;28;20040;-73
2021/12/31 04:27:59;;;;;;;9.88;1.95;;;14.20;99.90;;;;;;5024733;28;20033;-75
2021/12/31 04:30:24;;;;;;;8.88;1.90;;;14.20;99.90;;;;;;5026000;28;20033;-76
2021/12/31 04:32:50;;;;;;;8.93;2.10;;;14.20;99.90;;;;;;5031630;28;20033;-74
2021/12/31 04:35:18;;;;;;;8.48;2.13;;;14.20;99.90;;;;;;5011232;28;20065;-72
2021/12/31 04:37:44;;;;;;;9.10;1.92;;;14.10;99.90;;;;;;5039117;28;20025;-77
2021/12/31 04:40:11;;;;;;;5.65;2.30;;;14.20;99.90;;;;;;5033682;28;20036;-72
2021/12/31 04:42:40;;;;;;;5.22;1.83;;;14.20;99.90;;;;;;5032224;28;20446;-76
2021/12/31 04:45:08;;;;;;;8.77;1.70;;;14.20;99.90;;;;;;5026684;28;20045;-73
2021/12/31 04:47:34;;;;;;;12.55;2.40;;;14.20;99.90;;;;;;5031938;28;20029;-75
2021/12/31 04:49:59;;;;;;;5.43;1.77;;;14.20;99.90;;;;;;5030968;28;20108;-75
2021/12/31 04:52:25;;;;;;;4.28;2.10;;;14.10;99.90;;;;;;5032364;28;20132;-76
2021/12/31 04:54:51;;;;;;;5.38;1.60;;;14.10;99.90;;;;;;5032002;28;20025;-72
2021/12/31 04:57:16;;;;;;;4.63;1.60;;;14.10;99.90;;;;;;5032207;28;20034;-73
2021/12/31 04:59:42;;;;;;;9.73;2.00;;;14.10;99.90;;;;;;5032164;28;20038;-75
2021/12/31 05:02:07;;;;;;;8.30;2.03;;;14.10;99.90;;;;;;5032108;28;20049;-77
2021/12/31 05:04:33;;;;;;;6.90;1.83;;;14.10;99.90;;;;;;5030723;28;20029;-75
2021/12/31 05:06:59;;;;;;;6.45;1.75;;;14.10;99.90;;;;;;5022774;28;20125;-75
2021/12/31 05:09:24;;;;;;;3.75;1.38;;;14.10;99.90;;;;;;5030711;28;20021;-74
2021/12/31 05:11:50;;;;;;;4.60;1.70;;;14.10;99.90;;;;;;5030914;28;20060;-74
2021/12/31 05:14:16;;;;;;;7.68;2.03;;;14.10;99.90;;;;;;5032096;28;20060;-75
2021/12/31 05:16:42;;;;;;;6.43;1.70;;;14.00;99.90;;;;;;5032160;28;20061;-73
2021/12/31 05:19:07;;;;;;;4.45;1.80;;;14.00;99.90;;;;;;5032595;28;20060;-75
2021/12/31 05:21:33;;;;;;;6.47;1.80;;;14.00;99.90;;;;;;5030658;28;20029;-76
2021/12/31 05:23:59;;;;;;;8.57;1.65;;;14.00;99.90;;;;;;5012905;28;20116;-73
2021/12/31 05:26:25;;;;;;;4.10;1.48;;;14.00;99.90;;;;;;5012049;28;20140;-75
2021/12/31 05:28:51;;;;;;;7.13;2.17;;;14.00;99.90;;;;;;5012361;28;20030;-74
2021/12/31 05:31:17;;;;;;;7.05;1.75;;;14.00;99.90;;;;;;5010971;28;20056;-74
2021/12/31 05:33:42;;;;;;;4.78;1.50;;;14.00;99.90;;;;;;5012275;28;20383;-74
2021/12/31 05:36:08;;;;;;;5.97;2.10;;;13.90;99.90;;;;;;5012130;28;20057;-73
2021/12/31 05:38:34;;;;;;;5.43;2.00;;;13.90;99.90;;;;;;5030659;28;20037;-72
2021/12/31 05:41:00;;;;;;;6.18;1.70;;;13.90;99.90;;;;;;5031385;28;20026;-74
2021/12/31 05:43:26;;;;;;;4.75;1.45;;;13.90;99.90;;;;;;5035409;28;20045;-75
2021/12/31 05:45:52;;;;;;;12.27;2.13;;;13.90;99.90;;;;;;5033775;28;20037;-73
2021/12/31 05:48:17;;;;;;;8.75;1.85;;;13.90;99.90;;;;;;5035659;28;20040;-75
2021/12/31 05:50:43;;;;;;;4.28;1.90;;;13.80;99.90;;;;;;5035530;28;20022;-74
2021/12/31 05:53:08;;;;;;;8.35;1.80;;;13.80;99.90;;;;;;5035447;28;20079;-75
2021/12/31 05:55:34;;;;;;;8.30;1.92;;;13.90;99.90;;;;;;5035306;28;20029;-74
2021/12/31 05:58:02;;;;;;;7.53;1.80;;;13.90;99.90;;;;;;5034316;28;20471;-72
2021/12/31 06:00:29;;;;;;;7.05;1.70;;;13.80;99.90;;;;;;5035209;28;20730;-74
2021/12/31 06:02:56;;;;;;;7.40;2.17;;;13.80;99.90;;;;;;5035306;28;20028;-74
2021/12/31 06:05:25;;;;;;;5.15;1.77;;;13.80;99.90;;;;;;5034986;28;20026;-75
2021/12/31 06:07:56;;;;;;;6.68;2.38;;;13.80;99.90;;;;;;5035074;28;20025;-75
2021/12/31 06:10:22;;;;;;;7.90;1.90;;;13.80;99.90;;;;;;5035105;28;20071;-74
2021/12/31 06:12:55;;;;;;;7.35;2.28;;;13.80;99.90;;;;;;5033948;28;20063;-75
2021/12/31 06:15:21;;;;;;;4.55;1.60;;;13.80;99.90;;;;;;5034914;28;20108;-73
2021/12/31 06:17:47;;;;;;;5.05;1.63;;;13.80;99.90;;;;;;5034500;28;20109;-75
2021/12/31 06:20:13;;;;;;;4.65;1.90;;;13.70;99.90;;;;;;5034603;28;20032;-76
2021/12/31 06:22:39;;;;;;;6.93;2.00;;;13.70;99.90;;;;;;5033313;28;20104;-72
2021/12/31 06:25:05;;;;;;;8.60;2.00;;;13.70;99.90;;;;;;5034701;28;20443;-72
2021/12/31 06:27:30;;;;;;;8.02;1.92;;;13.60;99.90;;;;;;5034624;28;20510;-73
2021/12/31 06:29:56;;;;;;;8.43;1.95;;;13.60;99.90;;;;;;5033488;28;20101;-76
2021/12/31 06:32:22;;;;;;;3.75;1.67;;;13.60;99.90;;;;;;5034518;28;20041;-75
2021/12/31 06:34:47;;;;;;;8.73;2.35;;;13.60;99.90;;;;;;5033269;28;20065;-74
2021/12/31 06:37:13;;;;;;;9.75;2.00;;;13.60;99.90;;;;;;5034259;28;20390;-74
2021/12/31 06:39:41;;;;;;;9.32;1.98;;;13.60;99.90;;;;;;5029618;28;20029;-74
2021/12/31 06:42:07;;;;;;;10.88;2.22;;;13.50;99.90;;;;;;5036770;28;20371;-75
2021/12/31 06:44:34;;;;;;;6.07;1.73;;;13.60;99.90;;;;;;5041195;28;20490;-76
2021/12/31 06:47:00;;;;;;;7.82;1.65;;;13.60;99.90;;;;;;5031448;28;20040;-72
2021/12/31 06:49:25;;;;;;;4.35;1.58;;;13.60;99.90;;;;;;5013998;28;20025;-77
2021/12/31 06:51:51;;;;;;;6.47;1.90;;;13.60;99.90;;;;;;5014315;28;20025;-74
2021/12/31 06:54:17;;;;;;;5.55;1.75;;;13.70;99.90;;;;;;5014384;28;20054;-72
2021/12/31 06:56:42;;;;;;;4.60;2.10;;;13.70;99.90;;;;;;5014229;28;20563;-76
2021/12/31 06:59:08;;;;;;;8.10;2.38;;;13.70;99.90;;;;;;5014135;28;20025;-73
2021/12/31 07:01:33;;;;;;;4.40;1.70;;;13.70;99.90;;;;;;5013946;28;20036;-75
2021/12/31 07:03:59;;;;;;;6.18;1.90;;;13.70;99.90;;;;;;5014572;28;20034;-72
2021/12/31 07:06:25;;;;;;;6.47;1.92;;;13.70;99.90;;;;;;5017407;28;20037;-73
2021/12/31 07:08:50;;;;;;;7.15;2.00;;;13.70;99.90;;;;;;5033979;28;20026;-76
2021/12/31 07:11:17;;;;;;;5.80;2.00;;;13.70;99.90;;;;;;5033742;28;20017;-72
2021/12/31 07:13:43;;;;;;;10.43;2.17;;;13.70;99.90;;;;;;5033403;28;20037;-73
2021/12/31 07:16:08;;;;;;;3.55;1.42;;;13.80;99.90;;;;;;5034036;28;20490;-75
2021/12/31 07:18:34;;;;;;;6.25;1.80;;;13.80;99.90;;;;;;5032231;28;20051;-73
2021/12/31 07:21:00;;;;;;;5.07;1.92;;;13.80;99.90;;;;;;5030634;28;20022;-71
2021/12/31 07:23:25;;;;;;;5.15;2.17;;;13.80;99.90;;;;;;5012576;28;20456;-73
2021/12/31 07:25:51;;;;;;;7.07;2.38;;;13.80;99.90;;;;;;5013692;28;20042;-74
2021/12/31 07:28:17;;;;;;;4.75;2.35;;;13.80;99.90;;;;;;5012567;28;20030;-75
2021/12/31 07:30:44;;;;;;;7.15;2.00;;;13.80;99.90;;;;;;5013758;28;20026;-73
2021/12/31 07:33:21;;;;;;;4.75;1.77;;;13.80;99.90;;;;;;5012194;28;20026;-74
2021/12/31 07:35:50;;;;;;;6.10;1.92;;;13.70;99.90;;;;;;5019109;28;20463;-73
2021/12/31 07:38:32;;;;;;;7.68;1.80;;;13.70;99.90;;;;;;5030491;28;20026;-71
2021/12/31 07:40:59;;;;;;;7.15;2.40;;;13.70;99.90;;;;;;5032231;28;20048;-74
2021/12/31 07:43:25;;;;;;;7.10;2.20;;;13.70;99.90;;;;;;5021504;28;20033;-74
2021/12/31 07:45:52;;;;;;;8.50;1.95;;;13.70;99.90;;;;;;5032546;28;20038;-73
2021/12/31 07:48:18;;;;;;;6.10;2.08;;;13.70;99.90;;;;;;5032876;28;20033;-76
2021/12/31 07:50:44;;;;;;;7.57;2.10;;;13.60;99.90;;;;;;5033158;28;20025;-75
2021/12/31 07:53:10;;;;;;;5.03;2.10;;;13.60;99.90;;;;;;5031403;28;20041;-75
2021/12/31 07:55:36;;;;;;;7.65;2.15;;;13.60;99.90;;;;;;5025610;28;20034;-75
2021/12/31 07:58:03;;;;;;;6.30;2.33;;;13.60;99.90;;;;;;5029038;28;20463;-75
2021/12/31 08:00:29;;;;;;;7.00;1.80;;;13.60;99.90;;;;;;5032559;28;20035;-74
2021/12/31 08:02:55;;;;;;;8.00;2.40;;;13.60;99.90;;;;;;5031653;28;20442;-76
2021/12/31 08:05:22;;;;;;;6.60;2.00;;;13.70;99.90;;;;;;5032629;28;20049;-73
2021/12/31 08:07:48;;;;;;;9.55;2.63;;;13.60;99.90;;;;;;5031337;28;20475;-73
2021/12/31 08:10:13;;;;;;;7.93;2.33;;;13.60;99.90;;;;;;5032478;28;20037;-69
2021/12/31 08:12:39;;;;;;;8.80;2.20;;;13.60;99.90;;;;;;5024558;28;20026;-70
2021/12/31 08:15:05;;;;;;;5.93;2.42;;;13.60;99.90;;;;;;5012796;28;20093;-74
2021/12/31 08:17:31;;;;;;;8.70;2.25;;;13.60;99.90;;;;;;5023758;28;20073;-72
2021/12/31 08:19:56;;;;;;;8.38;2.47;;;13.60;99.90;;;;;;5032398;28;20033;-70
2021/12/31 08:22:23;;;;;;;9.13;2.30;;;13.60;99.90;;;;;;5031911;28;20109;-74
2021/12/31 08:24:49;;;;;;;6.43;2.13;;;13.60;99.90;;;;;;5032235;28;20041;-72
2021/12/31 08:27:14;;;;;;;6.20;2.42;;;13.50;99.90;;;;;;5031754;28;20037;-72
2021/12/31 08:29:40;;;;;;;5.88;1.58;;;13.50;99.90;;;;;;5029368;28;20113;-71
2021/12/31 08:32:06;;;;;;;5.53;2.10;;;13.50;99.90;;;;;;5031839;28;20036;-70
2021/12/31 08:34:32;;;;;;;10.52;2.33;;;13.50;99.90;;;;;;5021100;28;20075;-73
2021/12/31 08:36:58;;;;;;;11.57;2.20;;;13.50;99.90;;;;;;5032291;28;20332;-73
2021/12/31 08:39:24;;;;;;;5.45;2.28;;;13.50;99.90;;;;;;5032192;28;20030;-73
2021/12/31 08:41:50;;;;;;;3.97;1.85;;;13.60;99.90;;;;;;5031976;28;20172;-74
2021/12/31 08:44:16;;;;;;;6.10;2.38;;;13.60;99.90;;;;;;5032145;28;20383;-72
2021/12/31 08:46:42;;;;;;;6.25;2.00;;;13.60;99.90;;;;;;5031146;28;20038;-73
2021/12/31 08:49:08;;;;;;;6.18;1.63;;;13.60;99.90;;;;;;5032268;28;20029;-73
2021/12/31 08:51:34;;;;;;;6.43;1.75;;;13.60;99.90;;;;;;5032437;28;20049;-71
2021/12/31 08:54:03;;;;;;;7.63;2.17;;;13.60;99.90;;;;;;5033099;28;20510;-72
2021/12/31 08:56:29;;;;;;;9.20;2.30;;;13.60;99.90;;;;;;5031566;28;20104;-71
2021/12/31 08:58:54;;;;;;;5.32;2.00;;;13.60;99.90;;;;;;5031809;28;20121;-73
2021/12/31 09:01:20;;;;;;;10.40;2.22;;;13.60;99.90;;;;;;5030701;28;20056;-75
2021/12/31 09:03:52;;;;;;;6.95;2.10;;;13.60;99.90;;;;;;5027439;28;20049;-74
2021/12/31 09:06:18;;;;;;;;;;;13.60;99.90;;;;;;5032622;28;20044;-73
2021/12/31 09:08:46;;;;;;;4.85;2.28;;;13.60;99.90;;;;;;5031844;28;19905;-72
2021/12/31 09:11:14;;;;;;;7.53;2.38;;;13.60;99.90;;;;;;5031666;28;20054;-72
2021/12/31 09:13:42;;;;;;;5.55;1.67;;;13.60;99.90;;;;;;5031585;28;20061;-73
2021/12/31 09:16:11;;;;;;;4.20;1.70;;;13.60;99.90;;;;;;5035267;28;20136;-74
2021/12/31 09:18:36;;;;;;;6.05;2.00;;;13.60;99.90;;;;;;5031226;28;20036;-74
2021/12/31 09:21:03;;;;;;;4.95;2.00;;;13.60;99.90;;;;;;5023081;28;20109;-73
2021/12/31 09:23:29;;;;;;;8.30;2.20;;;13.60;99.90;;;;;;5033406;28;20025;-74
2021/12/31 09:25:55;;;;;;;5.38;1.83;;;13.70;99.90;;;;;;5033950;28;20107;-73
2021/12/31 09:28:22;;;;;;;7.05;2.30;;;13.60;99.90;;;;;;5035084;28;20033;-72
2021/12/31 09:30:47;;;;;;;7.13;2.17;;;13.70;99.90;;;;;;5034418;28;20072;-73
2021/12/31 09:33:13;;;;;;;6.47;2.40;;;13.60;99.90;;;;;;5034405;28;20057;-74
2021/12/31 09:35:39;;;;;;;5.85;1.88;;;13.70;99.90;;;;;;5024906;28;20374;-75
2021/12/31 09:38:09;;;;;;;5.72;2.00;;;13.60;99.90;;;;;;5032106;28;20031;-74
2021/12/31 09:40:38;;;;;;;9.18;2.20;;;13.50;99.90;;;;;;5032503;28;20518;-73
2021/12/31 09:43:08;;;;;;;11.90;2.60;;;13.50;99.90;;;;;;5031472;28;20018;-75
2021/12/31 09:45:36;;;;;;;8.23;2.35;;;13.40;99.90;;;;;;5019098;28;20080;-75
2021/12/31 09:48:12;;;;;;;10.48;2.25;;;13.40;99.90;;;;;;5035190;28;20021;-73
2021/12/31 09:50:41;;;;;;;7.22;2.15;;;13.40;99.90;;;;;;5033761;28;20022;-74
2021/12/31 09:53:08;;;;;;;9.18;2.15;;;13.40;99.90;;;;;;5032547;28;20029;-75
2021/12/31 09:55:51;;;;;;;7.13;2.17;;;13.40;99.90;;;;;;5033025;28;20037;-72
2021/12/31 09:58:18;;;;;;;10.10;2.95;;;13.40;99.90;;;;;;5034233;28;20026;-75
2021/12/31 10:00:46;;;;;;;7.75;2.55;;;13.40;99.90;;;;;;5027115;28;20034;-73
2021/12/31 10:03:25;;;;;;;8.60;2.50;;;13.40;99.90;;;;;;5029448;28;20029;-75
2021/12/31 10:05:52;;;;;;;7.65;2.30;;;13.40;99.90;;;;;;5044754;28;20041;-73
2021/12/31 10:08:18;;;;;;;5.45;2.50;;;13.30;99.90;;;;;;5030779;28;20426;-71
2021/12/31 10:11:20;;;;;;;7.88;2.15;;;13.40;99.90;;;;;;5028067;28;20477;-73
2021/12/31 10:14:02;;;;;;;5.50;1.92;;;13.40;99.90;;;;;;5034694;28;20680;-75
2021/12/31 10:16:39;;;;;;;9.52;2.85;;;13.40;99.90;;;;;;5043083;28;20033;-71
2021/12/31 10:19:15;;;;;;;10.48;2.70;;;13.40;99.90;;;;;;5034455;28;20060;-73
2021/12/31 10:21:46;;;;;;;9.93;2.15;;;13.40;99.90;;;;;;5034074;28;20068;-76
2021/12/31 10:24:38;;;;;;;6.32;2.08;;;13.40;99.90;;;;;;5032636;28;20470;-72
2021/12/31 10:27:11;;;;;;;9.50;3.08;;;13.50;99.90;;;;;;5029412;28;20053;-74
2021/12/31 10:29:58;;;;;;;8.38;1.70;;;13.50;99.90;;;;;;5017516;28;20075;-74
2021/12/31 10:32:30;;;;;;;5.65;2.08;;;13.60;99.90;;;;;;5031622;28;20028;-73
2021/12/31 10:35:26;;;;;;;11.90;2.22;;;13.60;99.90;;;;;;5031302;28;20025;-74
2021/12/31 10:37:57;;;;;;;9.00;2.50;;;13.60;99.90;;;;;;5034929;28;20057;-72
2021/12/31 10:40:36;;;;;;;6.82;2.30;;;13.70;99.90;;;;;;5032243;28;20096;-73
2021/12/31 10:43:16;;;;;;;9.98;2.83;;;13.70;99.90;;;;;;5031706;28;20060;-76
2021/12/31 10:46:16;;;;;;;7.95;2.20;;;13.80;99.90;;;;;;5030050;28;20065;-72
2021/12/31 10:48:45;;;;;;;9.73;2.20;;;13.90;99.90;;;;;;5008195;28;20042;-74
2021/12/31 10:51:15;;;;;;;9.25;2.83;;;14.00;99.90;;;;;;5031764;28;20048;-75
2021/12/31 10:53:44;;;;;;;7.30;2.38;;;14.00;99.90;;;;;;5031994;28;20471;-72
2021/12/31 10:56:14;;;;;;;8.75;3.00;;;14.00;99.90;;;;;;5026045;28;20132;-73
2021/12/31 10:58:42;;;;;;;10.70;2.65;;;14.00;99.90;;;;;;5033581;28;20029;-74
2021/12/31 11:01:12;;;;;;;9.02;2.42;;;14.00;99.90;;;;;;5033718;28;20045;-74
2021/12/31 11:03:39;;;;;;;9.40;2.60;;;14.10;99.90;;;;;;5033461;28;20068;-72
2021/12/31 11:06:07;;;;;;;8.18;2.30;;;14.10;99.90;;;;;;5033415;28;20495;-72
2021/12/31 11:08:34;;;;;;;9.32;2.55;;;14.10;99.90;;;;;;5032404;28;20029;-73
2021/12/31 11:11:01;;;;;;;9.55;2.17;;;14.10;99.90;;;;;;5033674;28;20022;-75
2021/12/31 11:13:28;;;;;;;9.32;2.70;;;14.10;99.90;;;;;;5025688;28;20069;-76
2021/12/31 11:15:55;;;;;;;13.02;2.70;;;14.00;99.90;;;;;;5012671;28;20026;-71
2021/12/31 11:18:23;;;;;;;5.70;2.08;;;14.00;99.90;;;;;;5013393;28;20120;-75
2021/12/31 11:20:54;;;;;;;12.80;2.88;;;14.00;99.90;;;;;;5014079;28;20112;-75
2021/12/31 11:23:31;;;;;;;11.07;2.63;;;13.90;99.90;;;;;;5013834;28;20097;-73
2021/12/31 11:26:04;;;;;;;11.57;2.92;;;13.90;99.90;;;;;;5016310;28;20033;-70
2021/12/31 11:28:41;;;;;;;13.27;2.65;;;13.80;99.90;;;;;;5015987;28;20022;-71
2021/12/31 11:31:26;;;;;;;7.22;2.47;;;13.60;99.90;;;;;;5032670;28;20029;-75
2021/12/31 11:34:01;;;;;;;10.18;2.97;;;13.40;99.90;;;;;;5032927;28;20064;-73
2021/12/31 11:36:48;;;;;;;13.23;2.90;;;13.20;99.90;;;;;;5028790;28;20627;-74
2021/12/31 11:39:38;;;;;;;15.68;3.60;;;13.10;99.90;;;;;;5027270;28;20036;-76
2021/12/31 11:42:08;;;;;;;15.52;3.17;;;13.10;99.90;;;;;;5011210;28;20438;-74
2021/12/31 11:44:36;;;;;;;9.82;3.10;;;13.10;99.90;;;;;;5020293;28;20182;-73
2021/12/31 11:47:26;;;;;;;15.82;3.33;;;13.10;99.90;;;;;;5018627;28;20038;-73
2021/12/31 11:50:22;;;;;;;11.38;2.80;;;13.10;99.90;;;;;;5035875;28;20032;-75
2021/12/31 11:53:02;;;;;;;13.32;2.75;;;13.20;99.90;;;;;;5052835;28;20074;-73
2021/12/31 11:55:41;;;;;;;17.10;3.42;;;13.30;99.90;;;;;;5033714;28;20176;-71
2021/12/31 11:58:35;;;;;;;14.02;2.95;;;13.40;99.90;;;;;;5026414;28;20044;-74
2021/12/31 12:01:36;;;;;;;13.27;2.90;;;13.50;99.90;;;;;;5023169;28;20025;-74
2021/12/31 12:04:24;;;;;;;18.38;3.58;;;13.60;99.90;;;;;;5020321;28;20029;-72
2021/12/31 12:07:05;;;;;;;8.15;2.78;;;13.50;99.90;;;;;;5020692;28;20037;-72
2021/12/31 12:09:37;;;;;;;11.85;3.05;;;13.60;99.90;;;;;;5016359;28;20105;-73
2021/12/31 12:12:14;;;;;;;11.18;2.75;;;13.50;99.90;;;;;;5026410;28;20156;-75
2021/12/31 12:14:45;;;;;;;15.57;2.88;;;13.60;99.90;;;;;;5030994;28;20053;-70
2021/12/31 12:17:14;;;;;;;8.40;2.60;;;13.50;99.90;;;;;;5018236;28;20115;-71
2021/12/31 12:19:49;;;;;;;12.77;3.15;;;13.50;99.90;;;;;;5031543;28;20033;-74
2021/12/31 12:22:33;;;;;;;12.05;3.15;;;13.40;99.90;;;;;;5032267;28;20029;-71
2021/12/31 12:25:06;;;;;;;6.55;2.58;;;13.60;99.90;;;;;;5023260;28;20046;-74
2021/12/31 12:27:33;;;;;;;8.15;2.78;;;13.80;99.90;;;;;;5031924;28;20586;-73
2021/12/31 12:30:01;;;;;;;15.80;3.65;;;13.80;99.90;;;;;;5032830;28;20036;-72
2021/12/31 12:34:58;;;;;;;;;;;13.70;99.90;;;;;;5025770;28;20452;-73
2021/12/31 12:37:31;;;;;;;13.50;2.95;;;13.50;99.90;;;;;;5031661;28;19905;-71
2021/12/31 12:40:03;;;;;;;16.10;3.55;;;13.40;99.90;;;;;;5027767;28;20463;-75
2021/12/31 12:42:29;;;;;;;13.50;3.42;;;13.30;99.90;;;;;;5029017;28;20033;-74
2021/12/31 12:45:12;;;;;;;16.02;3.72;;;13.30;99.90;;;;;;5016605;28;20036;-74
2021/12/31 12:47:38;;;;;;;13.77;2.92;;;13.20;99.90;;;;;;5018545;28;20060;-72
2021/12/31 12:50:09;;;;;;;14.90;3.28;;;13.30;99.90;;;;;;5026162;28;20042;-72
2021/12/31 12:52:35;;;;;;;14.07;3.65;;;13.30;99.90;;;;;;5031538;28;20041;-74
2021/12/31 12:55:28;;;;;;;10.55;3.15;;;13.20;99.90;;;;;;5035174;28;20025;-74
2021/12/31 12:57:59;;;;;;;17.35;3.35;;;13.10;99.90;;;;;;5025722;28;20739;-73